Latest Weather Observations for Central Arnhem Plateau

IDD60801

Issued at 8:01 am CST Tuesday 31 March 2015 (issued every 30 minutes, with the page automatically refreshed every 10 minutes)

About weather observations | Map of weather stations | Latest weather observations for NT | Other Formats
Station Details ID: 014909 Name: CENTRAL ARNHEM PLATEAU Lat: -13.33 Lon: 133.09 Height: 416.0 m
Data from the previous 72 hours. | See also: Recent months for locations in Northern Territory
Date/Time
CST
Temp
°C
App
Temp
°C
Dew
Point
Rel
Hum
%
Delta-T
°C
Wind Press
QNH
hPa
Press
MSL
hPa
Rain
since 9 am
mm
Dir
 
Spd
km/h
Gust
km/h
Spd
kts
Gust
kts
31/08:00am 24.6 26.1 20.5 78 2.7 E 13 19 7 10 1015.8 1012.9 0.0
31/07:30am 23.6 25.5 20.5 83 2.0 ENE 11 15 6 8 1015.6 1012.7 0.0
31/07:00am 22.8 24.9 20.1 85 1.8 ENE 9 11 5 6 1015.4 1012.5 0.0
31/06:30am 22.9 24.6 20.2 85 1.8 ENE 11 13 6 7 1015.0 1012.1 0.0
31/06:00am 23.3 24.3 20.2 83 2.0 E 15 19 8 10 1014.9 1012.0 0.0
31/05:30am 23.5 24.5 20.2 82 2.2 E 15 19 8 10 1014.6 1011.6 0.0
31/05:00am 23.6 25.5 20.5 83 2.0 E 11 15 6 8 1014.5 1011.5 0.0
31/04:30am 23.3 25.4 20.1 82 2.1 ESE 9 13 5 7 1014.1 1011.1 0.0
31/04:00am 23.6 25.7 20.1 81 2.3 ESE 9 11 5 6 1014.1 1011.1 0.0
31/03:30am 23.9 26.0 20.2 80 2.4 E 9 13 5 7 1014.2 1011.2 0.0
31/03:00am 24.2 25.5 20.1 78 2.7 E 13 17 7 9 1014.4 1011.4 0.0
31/02:30am 24.6 26.2 19.9 75 3.1 E 11 15 6 8 1014.7 1011.7 0.0
31/02:00am 24.7 26.4 19.3 72 3.5 E 9 13 5 7 1014.9 1012.0 0.0
31/01:30am 24.6 26.8 19.2 72 3.5 ENE 6 9 3 5 1015.0 1012.1 0.0
31/01:00am 24.8 26.7 18.5 68 4.1 ENE 6 7 3 4 1015.4 1012.5 0.0
31/12:30am 25.5 27.9 18.9 67 4.3 ENE 4 7 2 4 1015.6 1012.7 0.0
31/12:00am 25.3 27.1 18.2 64 4.6 ENE 6 7 3 4 1015.8 1012.9 0.0
 
Date/Time
CST
Temp
°C
App
Temp
°C
Dew
Point
Rel
Hum
%
Delta-T
°C
Wind Press
QNH
hPa
Press
MSL
hPa
Rain
since 9 am
mm
Dir
 
Spd
km/h
Gust
km/h
Spd
kts
Gust
kts
30/11:30pm 26.2 27.4 18.3 61 5.1 E 9 11 5 6 1015.9 1013.0 0.0
30/11:00pm 26.3 27.9 18.2 61 5.2 ENE 7 9 4 5 1016.1 1013.2 0.0
30/10:30pm 27.0 28.1 18.0 58 5.8 E 9 11 5 6 1016.1 1013.2 0.0
30/10:00pm 26.3 27.9 18.2 61 5.2 ENE 7 11 4 6 1015.8 1012.9 0.0
30/09:30pm 27.0 28.0 17.8 57 5.9 ESE 9 13 5 7 1015.6 1012.7 0.0
30/09:00pm 27.4 28.3 17.6 55 6.3 ESE 9 13 5 7 1015.5 1012.6 0.0
30/08:30pm 27.9 28.6 17.1 51 6.9 E 9 11 5 6 1015.3 1012.4 0.0
30/08:00pm 28.3 28.9 16.9 50 7.2 ESE 9 13 5 7 1015.0 1012.1 0.0
30/07:30pm 28.9 29.9 16.8 48 7.7 ESE 7 9 4 5 1014.6 1011.6 0.0
30/07:00pm 29.3 29.1 15.8 44 8.5 E 11 15 6 8 1014.3 1011.3 0.0
30/06:30pm 30.0 29.6 16.1 43 8.8 E 13 19 7 10 1014.1 1011.1 0.0
30/06:00pm 30.7 29.6 15.2 39 9.7 E 15 24 8 13 1013.6 1010.7 0.0
30/05:30pm 31.3 30.0 15.7 39 9.8 ENE 17 24 9 13 1013.5 1010.6 0.0
30/05:00pm 31.0 28.7 14.2 36 10.4 E 19 26 10 14 1013.4 1010.5 0.0
30/04:30pm 31.3 29.3 14.9 37 10.2 E 19 24 10 13 1013.4 1010.5 0.0
30/04:00pm 31.0 28.1 15.0 38 10.0 ESE 24 30 13 16 1013.4 1010.5 0.0
30/03:30pm 31.3 29.4 15.3 38 10.0 E 19 26 10 14 1013.4 1010.5 0.0
30/03:00pm 30.8 28.2 14.8 37 10.0 ESE 22 32 12 17 1013.4 1010.5 0.0
30/02:30pm 31.1 29.3 15.9 40 9.6 ENE 20 33 11 18 1013.7 1010.8 0.0
30/02:00pm 31.0 28.7 15.8 40 9.6 E 22 32 12 17 1014.0 1011.0 0.0
30/01:30pm 31.7 30.8 18.3 45 8.8 E 20 32 11 17 1014.1 1011.1 0.0
30/01:00pm 29.9 27.6 16.7 45 8.4 ENE 24 32 13 17 1014.5 1011.5 0.0
30/12:30pm 30.2 28.3 17.6 46 8.1 ENE 24 35 13 19 1014.8 1011.8 0.0
30/12:00pm 29.7 27.9 17.8 48 7.7 ENE 24 33 13 18 1015.1 1012.2 0.0
30/11:30am 30.3 29.5 18.4 49 7.8 ENE 20 28 11 15 1015.6 1012.7 0.0
30/11:00am 29.1 28.1 18.8 53 6.7 ENE 22 30 12 16 1015.9 1013.0 0.0
30/10:30am 28.5 27.6 19.1 56 6.2 E 22 32 12 17 1016.1 1013.2 0.0
30/10:00am 26.8 24.8 17.3 56 6.0 E 24 33 13 18 1016.2 1013.3 0.0
30/09:30am 26.7 24.4 15.7 51 6.8 E 22 37 12 20 1016.1 1013.2 0.0
30/09:00am 25.5 24.7 19.2 68 4.1 E 22 28 12 15 1016.1 1013.2 0.0
30/08:30am 24.7 26.2 20.6 78 2.7 E 13 20 7 11 1016.0 1013.1 0.0
30/08:00am 23.2 24.4 19.8 81 2.2 ESE 13 17 7 9 1015.7 1012.8 0.0
30/07:30am 22.6 24.0 19.6 83 1.9 ESE 11 15 6 8 1015.5 1012.6 0.0
30/07:00am 22.0 23.7 19.4 85 1.7 ESE 9 11 5 6 1015.1 1012.2 0.0
30/06:30am 21.7 23.8 19.3 86 1.5 SE 7 7 4 4 1014.7 1011.7 0.0
30/06:00am 21.6 23.6 18.8 84 1.8 E 6 7 3 4 1014.2 1011.2 0.0
30/05:30am 21.5 23.9 18.7 84 1.8 E 4 7 2 4 1014.2 1011.2 0.0
30/05:00am 22.0 24.0 18.8 82 2.1 E 6 7 3 4 1014.1 1011.1 0.0
30/04:30am 22.4 25.7 19.2 82 2.1 CALM 0 0 0 0 1013.9 1010.9 0.0
30/04:00am 22.4 25.1 18.6 79 2.4 ENE 2 7 1 4 1013.7 1010.8 0.0
30/03:30am 22.8 24.6 18.8 78 2.6 ENE 7 9 4 5 1013.7 1010.8 0.0
30/03:00am 23.5 25.4 19.0 76 2.9 E 7 11 4 6 1014.2 1011.2 0.0
30/02:30am 23.7 25.2 18.8 74 3.2 ENE 9 13 5 7 1014.2 1011.2 0.0
30/02:00am 24.1 25.8 18.5 71 3.6 ENE 7 13 4 7 1014.5 1011.5 0.0
30/01:30am 24.5 25.7 18.2 68 4.0 E 9 13 5 7 1015.0 1012.1 0.0
30/01:00am 24.5 25.9 17.7 66 4.3 ENE 7 9 4 5 1015.5 1012.6 0.0
30/12:30am 25.0 26.1 17.2 62 4.9 E 7 11 4 6 1015.9 1013.0 0.0
30/12:00am 24.5 25.8 17.2 63 4.6 ENE 6 7 3 4 1016.0 1013.1 0.0
 
Date/Time
CST
Temp
°C
App
Temp
°C
Dew
Point
Rel
Hum
%
Delta-T
°C
Wind Press
QNH
hPa
Press
MSL
hPa
Rain
since 9 am
mm
Dir
 
Spd
km/h
Gust
km/h
Spd
kts
Gust
kts
29/11:30pm 25.2 26.3 16.6 59 5.4 ESE 6 7 3 4 1016.3 1013.4 0.0
29/11:00pm 25.6 26.0 16.4 56 5.8 ESE 9 13 5 7 1016.3 1013.4 0.0
29/10:30pm 26.0 27.0 16.3 55 6.1 ESE 6 9 3 5 1016.3 1013.4 0.0
29/10:00pm 26.4 28.0 16.0 52 6.5 ESE 2 7 1 4 1016.1 1013.2 0.0
29/09:30pm 26.4 27.4 16.3 53 6.3 E 6 9 3 5 1015.9 1013.0 0.0
29/09:00pm 27.3 27.8 15.6 48 7.3 SE 7 9 4 5 1015.5 1012.6 0.0
29/08:30pm 27.6 28.0 15.3 47 7.6 ESE 7 11 4 6 1015.2 1012.3 0.0
29/08:00pm 28.0 28.0 15.3 46 7.9 SE 9 15 5 8 1014.9 1012.0 0.0
29/07:30pm 28.5 28.1 15.1 44 8.3 ESE 11 11 6 6 1014.7 1011.7 0.0
29/07:00pm 29.2 28.5 15.3 42 8.7 ESE 13 17 7 9 1014.2 1011.2 0.0
29/06:30pm 30.0 28.9 15.3 41 9.2 ESE 15 20 8 11 1014.0 1011.0 0.0
29/06:00pm 30.7 29.0 14.8 38 9.9 ESE 17 26 9 14 1013.9 1010.9 0.0
29/05:30pm 30.8 29.3 15.2 38 9.8 ESE 17 28 9 15 1013.6 1010.7 0.0
29/05:00pm 31.2 29.0 14.4 36 10.4 E 19 26 10 14 1013.5 1010.6 0.0
29/04:30pm 31.6 29.2 14.3 35 10.7 E 20 28 11 15 1013.3 1010.4 0.0
29/04:00pm 31.3 28.3 13.6 34 10.8 E 22 35 12 19 1013.1 1010.2 0.0
29/03:30pm 31.8 28.3 13.5 32 11.2 E 24 35 13 19 1013.1 1010.2 0.0
29/03:00pm 31.8 27.8 13.1 32 11.4 ESE 26 35 14 19 1013.2 1010.3 0.0
29/02:30pm 32.0 28.8 13.2 31 11.5 ESE 22 28 12 15 1013.2 1010.3 0.0
29/02:00pm 31.9 28.7 13.2 32 11.4 ESE 22 32 12 17 1013.6 1010.7 0.0
29/01:30pm 31.4 26.9 12.7 32 11.3 E 28 39 15 21 1014.1 1011.1 0.0
29/01:00pm 31.2 29.0 14.8 37 10.2 E 20 33 11 18 1014.6 1011.6 0.0
29/12:30pm 31.1 29.0 15.1 38 10.0 ESE 20 30 11 16 1015.0 1012.1 0.0
29/12:00pm 31.1 29.3 15.9 40 9.6 ESE 20 30 11 16 1015.5 1012.6 0.0
29/11:30am 30.2 28.0 15.9 42 9.0 E 22 32 12 17 1015.8 1012.9 0.0
29/11:00am 29.7 28.7 16.5 45 8.4 ESE 17 24 9 13 1015.9 1013.0 0.0
29/10:30am 29.3 27.9 16.5 46 8.1 ESE 19 26 10 14 1016.2 1013.3 0.0
29/10:00am 28.3 29.3 18.7 56 6.3 ESE 11 15 6 8 1016.3 1013.4 0.0
29/09:30am 27.5 28.6 18.8 59 5.7 E 11 20 6 11 1016.3 1013.4 0.0
29/09:00am 26.4 28.4 20.0 68 4.2 E 9 13 5 7 1016.1 1013.2 0.0
29/08:30am 25.7 27.9 20.5 73 3.5 ENE 9 11 5 6 1015.8 1012.9 0.0
29/08:00am 24.8 27.4 20.5 77 2.9 ENE 7 9 4 5 1015.6 1012.7 0.0
29/07:30am 23.8 27.2 19.3 76 2.9 CALM 0 0 0 0 1015.3 1012.4 0.0
29/07:00am 22.8 25.4 19.2 80 2.3 NE 4 6 2 3 1015.0 1012.1 0.0
29/06:30am 22.4 25.7 19.0 81 2.2 CALM 0 0 0 0 1014.7 1011.7 0.0
29/06:00am 22.6 26.0 19.4 82 2.1 CALM 0 0 0 0 1014.5 1011.5 0.0
29/05:30am 22.6 25.9 19.2 81 2.2 CALM 0 0 0 0 1014.4 1011.4 0.0
29/05:00am 23.3 26.8 19.5 79 2.5 CALM 0 0 0 0 1014.2 1011.2 0.0
29/04:30am 23.3 26.6 19.2 78 2.7 CALM 0 0 0 0 1014.1 1011.1 0.0
29/04:00am 23.3 26.8 19.5 79 2.5 CALM 0 4 0 2 1014.0 1011.0 0.0
29/03:30am 23.4 25.9 19.8 80 2.4 E 6 7 3 4 1014.1 1011.1 0.0
29/03:00am 23.5 26.6 19.6 79 2.5 ESE 2 6 1 3 1014.3 1011.3 0.0
29/02:30am 24.0 26.5 19.1 74 3.2 ESE 4 7 2 4 1014.5 1011.5 0.0
29/02:00am 24.1 26.2 19.4 75 3.1 ESE 7 9 4 5 1014.7 1011.7 0.0
29/01:30am 24.2 27.0 19.7 76 2.9 E 4 6 2 3 1015.0 1012.1 0.0
29/01:00am 25.3 28.2 18.2 64 4.6 CALM 0 0 0 0 1015.4 1012.5 0.0
29/12:30am 25.3 28.3 18.5 66 4.4 CALM 0 0 0 0 1015.7 1012.8 0.0
29/12:00am 25.5 28.6 18.7 66 4.4 CALM 0 0 0 0 1015.9 1013.0 0.0
 
Date/Time
CST
Temp
°C
App
Temp
°C
Dew
Point
Rel
Hum
%
Delta-T
°C
Wind Press
QNH
hPa
Press
MSL
hPa
Rain
since 9 am
mm
Dir
 
Spd
km/h
Gust
km/h
Spd
kts
Gust
kts
28/11:30pm 25.6 27.9 18.5 65 4.6 E 4 7 2 4 1016.1 1013.2 0.0
28/11:00pm 25.9 27.7 18.8 65 4.6 ENE 7 9 4 5 1016.1 1013.2 0.0
28/10:30pm 26.2 27.6 17.8 60 5.4 ENE 7 9 4 5 1015.9 1013.0 0.0
28/10:00pm 26.6 27.6 17.7 58 5.7 SE 9 11 5 6 1015.9 1013.0 0.0
28/09:30pm 26.9 28.1 17.4 56 6.1 SE 7 11 4 6 1015.8 1012.9 0.0
28/09:00pm 27.4 28.4 17.8 55 6.2 SE 9 13 5 7 1015.6 1012.7 0.0
28/08:30pm 27.9 28.5 17.7 53 6.6 SE 11 19 6 10 1015.3 1012.4 0.0
28/08:00pm 28.6 30.1 18.1 53 6.8 ESE 7 9 4 5 1014.9 1012.0 0.0
28/07:30pm 29.1 30.7 18.2 51 7.1 ESE 7 9 4 5 1014.4 1011.4 0.0
28/07:00pm 29.4 30.2 17.2 47 7.8 E 9 13 5 7 1014.0 1011.0 0.0
28/06:30pm 30.0 29.8 16.8 45 8.4 E 13 17 7 9 1013.6 1010.7 0.0
28/06:00pm 30.7 29.6 16.3 42 9.2 E 17 22 9 12 1013.3 1010.4 0.0
28/05:30pm 30.9 29.3 16.1 41 9.4 E 19 26 10 14 1012.9 1010.0 0.0
28/05:00pm 31.6 30.2 17.1 41 9.3 E 20 30 11 16 1012.7 1009.8 0.0
28/04:30pm 31.9 31.2 17.4 42 9.4 E 17 28 9 15 1012.6 1009.6 0.0
28/04:00pm 31.6 30.4 17.1 41 9.3 E 19 26 10 14 1012.7 1009.8 0.0
28/03:30pm 31.2 29.9 16.8 42 9.2 E 19 26 10 14 1012.7 1009.8 0.0
28/03:00pm 32.0 30.9 16.3 39 10.0 ENE 17 26 9 14 1013.0 1010.1 0.0
28/02:30pm 31.6 30.5 16.3 39 9.8 ENE 17 24 9 13 1013.4 1010.5 0.0
28/02:00pm 31.6 30.8 16.0 39 9.9 ENE 15 32 8 17 1013.5 1010.6 0.0
28/01:30pm 31.8 31.3 16.9 40 9.6 E 15 22 8 12 1014.2 1011.2 0.0
28/01:00pm 31.5 30.4 16.3 40 9.7 E 17 28 9 15 1014.6 1011.6 0.0
28/12:30pm 30.9 30.5 16.1 41 9.4 E 13 19 7 10 1015.1 1012.2 0.0
28/12:00pm 30.4 28.9 16.4 43 8.9 ENE 19 30 10 16 1015.5 1012.6 0.0
28/11:30am 30.1 29.7 17.2 46 8.3 ENE 15 22 8 12 1015.8 1012.9 0.0
28/11:00am 29.6 29.2 17.1 47 8.0 ENE 15 24 8 13 1016.0 1013.1 0.0
28/10:30am 29.1 29.9 19.1 54 6.6 ENE 13 20 7 11 1016.0 1013.1 0.0
28/10:00am 28.1 28.5 17.3 52 6.9 ENE 11 17 6 9 1016.1 1013.2 0.0
28/09:30am 27.1 28.1 18.7 60 5.5 E 11 17 6 9 1016.2 1013.3 0.0
28/09:00am 26.4 28.3 19.8 67 4.3 ENE 9 13 5 7 1016.1 1013.2 0.0
28/08:30am 25.8 28.3 19.9 70 3.9 ENE 6 7 3 4 1015.9 1013.0 0.0

Other Formats:

Comma delimited format used in spreadsheet applications
http://www.bom.gov.au/fwo/IDD60801/IDD60801.94141.axf

JavaScript Object Notation format (JSON) in row-major order
http://www.bom.gov.au/fwo/IDD60801/IDD60801.94141.json